Terminal Aerodrome Forecast
Issued by NWS

Home | Current Version | Previous Version | Text Only | Print | Product List | Glossary On
Versions: 1 2 3 4 5 6 7 8 9 10 11 12 13 14 15 16 17 18
000
FTUS42 KMLB 271000 AAA
TAFSUA
TAF AMD
KSUA 271029Z 2710/2806 00000KT 3SM BR SCT001 BKN025
      TEMPO 2710/2712 1SM BR
     FM271600 08006KT P6SM BKN035
     FM280200 12004KT P6SM SCT015 BKN025=

USA.gov is the U.S. government's official web portal to all federal, state and local government web resources and services.